sensor_id;sensor_type;location;lat;lon;timestamp;temperature;humidity
42479;DHT22;28110;47.080;9.476;2023-02-01T00:01:24;2.90;99.90
42479;DHT22;28110;47.080;9.476;2023-02-01T00:03:49;2.80;99.90
42479;DHT22;28110;47.080;9.476;2023-02-01T00:06:15;2.80;99.90
42479;DHT22;28110;47.080;9.476;2023-02-01T00:08:40;2.90;99.90
42479;DHT22;28110;47.080;9.476;2023-02-01T00:11:08;2.90;99.90
42479;DHT22;28110;47.080;9.476;2023-02-01T00:13:36;2.80;99.90
42479;DHT22;28110;47.080;9.476;2023-02-01T00:16:07;2.80;99.90
42479;DHT22;28110;47.080;9.476;2023-02-01T00:18:32;2.90;99.90
42479;DHT22;28110;47.080;9.476;2023-02-01T00:20:58;2.90;99.90
42479;DHT22;28110;47.080;9.476;2023-02-01T00:23:24;2.80;99.90
42479;DHT22;28110;47.080;9.476;2023-02-01T00:25:49;2.80;99.90
42479;DHT22;28110;47.080;9.476;2023-02-01T00:28:15;2.80;99.90
42479;DHT22;28110;47.080;9.476;2023-02-01T00:30:40;2.80;99.90
42479;DHT22;28110;47.080;9.476;2023-02-01T00:33:06;2.90;99.90
42479;DHT22;28110;47.080;9.476;2023-02-01T00:35:34;2.90;99.90
42479;DHT22;28110;47.080;9.476;2023-02-01T00:37:59;2.90;99.90
42479;DHT22;28110;47.080;9.476;2023-02-01T00:40:25;2.90;99.90
42479;DHT22;28110;47.080;9.476;2023-02-01T00:42:51;2.90;99.90
42479;DHT22;28110;47.080;9.476;2023-02-01T00:45:17;2.90;99.90
42479;DHT22;28110;47.080;9.476;2023-02-01T00:47:43;2.90;99.90
42479;DHT22;28110;47.080;9.476;2023-02-01T00:50:09;2.90;99.90
42479;DHT22;28110;47.080;9.476;2023-02-01T00:52:35;2.90;99.90
42479;DHT22;28110;47.080;9.476;2023-02-01T00:55:00;2.80;99.90
42479;DHT22;28110;47.080;9.476;2023-02-01T00:57:26;2.80;99.90
42479;DHT22;28110;47.080;9.476;2023-02-01T00:59:51;2.80;99.90
42479;DHT22;28110;47.080;9.476;2023-02-01T01:02:17;2.80;99.90
42479;DHT22;28110;47.080;9.476;2023-02-01T01:04:43;2.80;99.90
42479;DHT22;28110;47.080;9.476;2023-02-01T01:07:09;2.80;99.90
42479;DHT22;28110;47.080;9.476;2023-02-01T01:09:34;2.70;99.90
42479;DHT22;28110;47.080;9.476;2023-02-01T01:12:00;2.70;99.90
42479;DHT22;28110;47.080;9.476;2023-02-01T01:14:28;2.70;99.90
42479;DHT22;28110;47.080;9.476;2023-02-01T01:16:54;2.70;99.90
42479;DHT22;28110;47.080;9.476;2023-02-01T01:19:20;2.70;99.90
42479;DHT22;28110;47.080;9.476;2023-02-01T01:21:45;2.70;99.90
42479;DHT22;28110;47.080;9.476;2023-02-01T01:24:11;2.70;99.90
42479;DHT22;28110;47.080;9.476;2023-02-01T01:26:36;2.60;99.90
42479;DHT22;28110;47.080;9.476;2023-02-01T01:29:02;2.60;99.90
42479;DHT22;28110;47.080;9.476;2023-02-01T01:31:30;2.60;99.90
42479;DHT22;28110;47.080;9.476;2023-02-01T01:33:58;2.60;99.90
42479;DHT22;28110;47.080;9.476;2023-02-01T01:36:24;2.60;99.90
42479;DHT22;28110;47.080;9.476;2023-02-01T01:38:50;2.60;99.90
42479;DHT22;28110;47.080;9.476;2023-02-01T01:41:24;2.50;99.90
42479;DHT22;28110;47.080;9.476;2023-02-01T01:43:55;2.50;99.90
42479;DHT22;28110;47.080;9.476;2023-02-01T01:46:36;2.50;99.90
42479;DHT22;28110;47.080;9.476;2023-02-01T01:49:12;2.60;99.90
42479;DHT22;28110;47.080;9.476;2023-02-01T01:51:50;2.60;99.90
42479;DHT22;28110;47.080;9.476;2023-02-01T01:54:29;2.60;99.90
42479;DHT22;28110;47.080;9.476;2023-02-01T01:57:01;2.60;99.90
42479;DHT22;28110;47.080;9.476;2023-02-01T01:59:27;2.50;99.90
42479;DHT22;28110;47.080;9.476;2023-02-01T02:01:55;2.50;99.90
42479;DHT22;28110;47.080;9.476;2023-02-01T02:04:21;2.40;99.90
42479;DHT22;28110;47.080;9.476;2023-02-01T02:07:05;2.40;99.90
42479;DHT22;28110;47.080;9.476;2023-02-01T02:09:33;2.40;99.90
42479;DHT22;28110;47.080;9.476;2023-02-01T02:11:59;2.30;99.90
42479;DHT22;28110;47.080;9.476;2023-02-01T02:14:25;2.30;99.90
42479;DHT22;28110;47.080;9.476;2023-02-01T02:20:11;2.30;99.90
42479;DHT22;28110;47.080;9.476;2023-02-01T02:23:05;2.30;99.90
42479;DHT22;28110;47.080;9.476;2023-02-01T02:25:46;2.20;99.90
42479;DHT22;28110;47.080;9.476;2023-02-01T02:28:47;2.20;99.90
42479;DHT22;28110;47.080;9.476;2023-02-01T02:40:19;2.20;99.90
42479;DHT22;28110;47.080;9.476;2023-02-01T02:46:25;2.30;99.90
42479;DHT22;28110;47.080;9.476;2023-02-01T02:49:23;2.30;99.90
42479;DHT22;28110;47.080;9.476;2023-02-01T02:51:56;2.30;99.90
42479;DHT22;28110;47.080;9.476;2023-02-01T02:54:47;2.20;99.90
42479;DHT22;28110;47.080;9.476;2023-02-01T02:57:30;2.20;99.90
42479;DHT22;28110;47.080;9.476;2023-02-01T03:00:18;2.20;99.90
42479;DHT22;28110;47.080;9.476;2023-02-01T03:03:04;2.20;99.90
42479;DHT22;28110;47.080;9.476;2023-02-01T03:05:49;2.20;99.90
42479;DHT22;28110;47.080;9.476;2023-02-01T03:08:21;2.20;99.90
42479;DHT22;28110;47.080;9.476;2023-02-01T03:11:02;2.20;99.90
42479;DHT22;28110;47.080;9.476;2023-02-01T03:16:24;2.00;99.90
42479;DHT22;28110;47.080;9.476;2023-02-01T03:19:09;2.00;99.90
42479;DHT22;28110;47.080;9.476;2023-02-01T03:21:41;1.90;99.90
42479;DHT22;28110;47.080;9.476;2023-02-01T03:24:32;2.00;99.90
42479;DHT22;28110;47.080;9.476;2023-02-01T03:27:18;1.90;99.90
42479;DHT22;28110;47.080;9.476;2023-02-01T03:32:17;1.80;99.90
42479;DHT22;28110;47.080;9.476;2023-02-01T03:34:43;1.80;99.90
42479;DHT22;28110;47.080;9.476;2023-02-01T03:37:19;1.70;99.90
42479;DHT22;28110;47.080;9.476;2023-02-01T03:39:58;1.70;99.90
42479;DHT22;28110;47.080;9.476;2023-02-01T03:42:35;1.70;99.90
42479;DHT22;28110;47.080;9.476;2023-02-01T03:45:20;1.80;99.90
42479;DHT22;28110;47.080;9.476;2023-02-01T03:47:50;1.80;99.90
42479;DHT22;28110;47.080;9.476;2023-02-01T03:50:22;1.80;99.90
42479;DHT22;28110;47.080;9.476;2023-02-01T03:53:01;1.70;99.90
42479;DHT22;28110;47.080;9.476;2023-02-01T03:55:28;1.70;99.90
42479;DHT22;28110;47.080;9.476;2023-02-01T03:58:02;1.70;99.90
42479;DHT22;28110;47.080;9.476;2023-02-01T04:00:29;1.70;99.90
42479;DHT22;28110;47.080;9.476;2023-02-01T04:02:55;1.60;99.90
42479;DHT22;28110;47.080;9.476;2023-02-01T04:05:21;1.60;99.90
42479;DHT22;28110;47.080;9.476;2023-02-01T04:07:47;1.50;99.90
42479;DHT22;28110;47.080;9.476;2023-02-01T04:10:12;1.50;99.90
42479;DHT22;28110;47.080;9.476;2023-02-01T04:12:38;1.50;99.90
42479;DHT22;28110;47.080;9.476;2023-02-01T04:15:04;1.40;99.90
42479;DHT22;28110;47.080;9.476;2023-02-01T04:17:30;1.40;99.90
42479;DHT22;28110;47.080;9.476;2023-02-01T04:19:56;1.50;99.90
42479;DHT22;28110;47.080;9.476;2023-02-01T04:22:22;1.50;99.90
42479;DHT22;28110;47.080;9.476;2023-02-01T04:24:47;1.50;99.90
42479;DHT22;28110;47.080;9.476;2023-02-01T04:27:13;1.60;99.90
42479;DHT22;28110;47.080;9.476;2023-02-01T04:29:39;1.60;99.90
42479;DHT22;28110;47.080;9.476;2023-02-01T04:32:04;1.60;99.90
42479;DHT22;28110;47.080;9.476;2023-02-01T04:34:30;1.60;99.90
42479;DHT22;28110;47.080;9.476;2023-02-01T04:36:55;1.70;99.90
42479;DHT22;28110;47.080;9.476;2023-02-01T04:39:21;1.70;99.90
42479;DHT22;28110;47.080;9.476;2023-02-01T04:41:46;1.70;99.90
42479;DHT22;28110;47.080;9.476;2023-02-01T04:44:16;1.70;99.90
42479;DHT22;28110;47.080;9.476;2023-02-01T04:46:43;1.60;99.90
42479;DHT22;28110;47.080;9.476;2023-02-01T04:49:09;1.60;99.90
42479;DHT22;28110;47.080;9.476;2023-02-01T04:51:35;1.50;99.90
42479;DHT22;28110;47.080;9.476;2023-02-01T04:54:00;1.60;99.90
42479;DHT22;28110;47.080;9.476;2023-02-01T04:56:26;1.60;99.90
42479;DHT22;28110;47.080;9.476;2023-02-01T04:58:51;1.60;99.90
42479;DHT22;28110;47.080;9.476;2023-02-01T05:01:17;1.60;99.90
42479;DHT22;28110;47.080;9.476;2023-02-01T05:03:43;1.60;99.90
42479;DHT22;28110;47.080;9.476;2023-02-01T05:06:08;1.70;99.90
42479;DHT22;28110;47.080;9.476;2023-02-01T05:08:34;1.80;99.90
42479;DHT22;28110;47.080;9.476;2023-02-01T05:11:00;1.90;99.90
42479;DHT22;28110;47.080;9.476;2023-02-01T05:13:28;1.90;99.90
42479;DHT22;28110;47.080;9.476;2023-02-01T05:16:12;1.80;99.90
42479;DHT22;28110;47.080;9.476;2023-02-01T05:18:38;1.90;99.90
42479;DHT22;28110;47.080;9.476;2023-02-01T05:21:03;1.90;99.90
42479;DHT22;28110;47.080;9.476;2023-02-01T05:23:29;1.90;99.90
42479;DHT22;28110;47.080;9.476;2023-02-01T05:26:01;1.90;99.90
42479;DHT22;28110;47.080;9.476;2023-02-01T05:28:27;1.80;99.90
42479;DHT22;28110;47.080;9.476;2023-02-01T05:30:53;1.80;99.90
42479;DHT22;28110;47.080;9.476;2023-02-01T05:33:20;1.80;99.90
42479;DHT22;28110;47.080;9.476;2023-02-01T05:35:45;1.70;99.90
42479;DHT22;28110;47.080;9.476;2023-02-01T05:38:11;1.60;99.90
42479;DHT22;28110;47.080;9.476;2023-02-01T05:40:36;1.50;99.90
42479;DHT22;28110;47.080;9.476;2023-02-01T05:43:02;1.40;99.90
42479;DHT22;28110;47.080;9.476;2023-02-01T05:45:27;1.40;99.90
42479;DHT22;28110;47.080;9.476;2023-02-01T05:47:53;1.40;99.90
42479;DHT22;28110;47.080;9.476;2023-02-01T05:50:18;1.40;99.90
42479;DHT22;28110;47.080;9.476;2023-02-01T05:52:44;1.40;99.90
42479;DHT22;28110;47.080;9.476;2023-02-01T05:55:09;1.40;99.90
42479;DHT22;28110;47.080;9.476;2023-02-01T05:57:35;1.40;99.90
42479;DHT22;28110;47.080;9.476;2023-02-01T06:00:01;1.40;99.90
42479;DHT22;28110;47.080;9.476;2023-02-01T06:02:26;1.40;99.90
42479;DHT22;28110;47.080;9.476;2023-02-01T06:04:52;1.40;99.90
42479;DHT22;28110;47.080;9.476;2023-02-01T06:07:17;1.30;99.90
42479;DHT22;28110;47.080;9.476;2023-02-01T06:09:43;1.40;99.90
42479;DHT22;28110;47.080;9.476;2023-02-01T06:12:09;1.30;99.90
42479;DHT22;28110;47.080;9.476;2023-02-01T06:14:34;1.30;99.90
42479;DHT22;28110;47.080;9.476;2023-02-01T06:17:00;1.30;99.90
42479;DHT22;28110;47.080;9.476;2023-02-01T06:19:25;1.30;99.90
42479;DHT22;28110;47.080;9.476;2023-02-01T06:21:51;1.30;99.90
42479;DHT22;28110;47.080;9.476;2023-02-01T06:24:17;1.30;99.90
42479;DHT22;28110;47.080;9.476;2023-02-01T06:26:43;1.30;99.90
42479;DHT22;28110;47.080;9.476;2023-02-01T06:29:10;1.30;99.90
42479;DHT22;28110;47.080;9.476;2023-02-01T06:31:36;1.30;99.90
42479;DHT22;28110;47.080;9.476;2023-02-01T06:34:01;1.40;99.90
42479;DHT22;28110;47.080;9.476;2023-02-01T06:36:28;1.40;99.90
42479;DHT22;28110;47.080;9.476;2023-02-01T06:38:55;1.40;99.90
42479;DHT22;28110;47.080;9.476;2023-02-01T06:41:22;1.40;99.90
42479;DHT22;28110;47.080;9.476;2023-02-01T06:43:47;1.40;99.90
42479;DHT22;28110;47.080;9.476;2023-02-01T06:46:13;1.40;99.90
42479;DHT22;28110;47.080;9.476;2023-02-01T06:48:39;1.40;99.90
42479;DHT22;28110;47.080;9.476;2023-02-01T06:51:05;1.40;99.90
42479;DHT22;28110;47.080;9.476;2023-02-01T06:53:30;1.40;99.90
42479;DHT22;28110;47.080;9.476;2023-02-01T06:56:01;1.40;99.90
42479;DHT22;28110;47.080;9.476;2023-02-01T06:58:31;1.40;99.90
42479;DHT22;28110;47.080;9.476;2023-02-01T07:00:58;1.40;99.90
42479;DHT22;28110;47.080;9.476;2023-02-01T07:03:23;1.50;99.90
42479;DHT22;28110;47.080;9.476;2023-02-01T07:05:49;1.50;99.90
42479;DHT22;28110;47.080;9.476;2023-02-01T07:08:15;1.50;99.90
42479;DHT22;28110;47.080;9.476;2023-02-01T07:10:40;1.60;99.90
42479;DHT22;28110;47.080;9.476;2023-02-01T07:13:06;1.60;99.90
42479;DHT22;28110;47.080;9.476;2023-02-01T07:15:32;1.60;99.90
42479;DHT22;28110;47.080;9.476;2023-02-01T07:17:57;1.60;99.90
42479;DHT22;28110;47.080;9.476;2023-02-01T07:20:23;1.60;99.90
42479;DHT22;28110;47.080;9.476;2023-02-01T07:22:49;1.70;99.90
42479;DHT22;28110;47.080;9.476;2023-02-01T07:25:19;1.80;99.90
42479;DHT22;28110;47.080;9.476;2023-02-01T07:27:45;1.80;99.90
42479;DHT22;28110;47.080;9.476;2023-02-01T07:30:12;1.70;99.90
42479;DHT22;28110;47.080;9.476;2023-02-01T07:32:37;1.80;99.90
42479;DHT22;28110;47.080;9.476;2023-02-01T07:35:03;1.70;99.90
42479;DHT22;28110;47.080;9.476;2023-02-01T07:37:28;1.80;99.90
42479;DHT22;28110;47.080;9.476;2023-02-01T07:39:55;1.70;99.90
42479;DHT22;28110;47.080;9.476;2023-02-01T07:42:20;1.80;99.90
42479;DHT22;28110;47.080;9.476;2023-02-01T07:44:46;1.80;99.90
42479;DHT22;28110;47.080;9.476;2023-02-01T07:47:11;1.80;99.90
42479;DHT22;28110;47.080;9.476;2023-02-01T07:49:37;1.90;99.90
42479;DHT22;28110;47.080;9.476;2023-02-01T07:52:02;1.90;99.90
42479;DHT22;28110;47.080;9.476;2023-02-01T07:54:28;2.00;99.90
42479;DHT22;28110;47.080;9.476;2023-02-01T07:56:53;2.00;99.90
42479;DHT22;28110;47.080;9.476;2023-02-01T07:59:19;2.00;99.90
42479;DHT22;28110;47.080;9.476;2023-02-01T08:01:44;2.00;99.90
42479;DHT22;28110;47.080;9.476;2023-02-01T08:04:13;2.00;99.90
42479;DHT22;28110;47.080;9.476;2023-02-01T08:06:39;2.00;99.90
42479;DHT22;28110;47.080;9.476;2023-02-01T08:09:05;2.00;99.90
42479;DHT22;28110;47.080;9.476;2023-02-01T08:11:33;2.00;99.90
42479;DHT22;28110;47.080;9.476;2023-02-01T08:13:59;2.00;99.90
42479;DHT22;28110;47.080;9.476;2023-02-01T08:16:25;2.10;99.90
42479;DHT22;28110;47.080;9.476;2023-02-01T08:18:51;2.10;99.90
42479;DHT22;28110;47.080;9.476;2023-02-01T08:21:23;2.10;99.90
42479;DHT22;28110;47.080;9.476;2023-02-01T08:23:49;2.10;99.90
42479;DHT22;28110;47.080;9.476;2023-02-01T08:26:17;2.20;99.90
42479;DHT22;28110;47.080;9.476;2023-02-01T08:28:46;2.20;99.90
42479;DHT22;28110;47.080;9.476;2023-02-01T08:31:14;2.20;99.90
42479;DHT22;28110;47.080;9.476;2023-02-01T08:33:41;2.30;99.90
42479;DHT22;28110;47.080;9.476;2023-02-01T08:36:08;2.20;99.90
42479;DHT22;28110;47.080;9.476;2023-02-01T08:38:35;2.30;99.90
42479;DHT22;28110;47.080;9.476;2023-02-01T08:41:16;2.20;99.90
42479;DHT22;28110;47.080;9.476;2023-02-01T08:43:42;2.10;99.90
42479;DHT22;28110;47.080;9.476;2023-02-01T08:46:09;2.00;99.90
42479;DHT22;28110;47.080;9.476;2023-02-01T08:48:35;2.00;99.90
42479;DHT22;28110;47.080;9.476;2023-02-01T08:51:02;1.90;99.90
42479;DHT22;28110;47.080;9.476;2023-02-01T08:53:28;2.00;99.90
42479;DHT22;28110;47.080;9.476;2023-02-01T08:55:54;2.00;99.90
42479;DHT22;28110;47.080;9.476;2023-02-01T08:58:19;2.00;99.90
42479;DHT22;28110;47.080;9.476;2023-02-01T09:00:47;1.90;99.90
42479;DHT22;28110;47.080;9.476;2023-02-01T09:03:13;2.00;99.90
42479;DHT22;28110;47.080;9.476;2023-02-01T09:05:39;2.00;99.90
42479;DHT22;28110;47.080;9.476;2023-02-01T09:08:06;2.10;99.90
42479;DHT22;28110;47.080;9.476;2023-02-01T09:10:32;2.10;99.90
42479;DHT22;28110;47.080;9.476;2023-02-01T09:12:57;2.10;99.90
42479;DHT22;28110;47.080;9.476;2023-02-01T09:15:23;2.10;99.90
42479;DHT22;28110;47.080;9.476;2023-02-01T09:17:49;2.20;99.90
42479;DHT22;28110;47.080;9.476;2023-02-01T09:20:14;2.20;99.90
42479;DHT22;28110;47.080;9.476;2023-02-01T09:22:40;2.20;99.90
42479;DHT22;28110;47.080;9.476;2023-02-01T09:25:06;2.20;99.90
42479;DHT22;28110;47.080;9.476;2023-02-01T09:27:33;2.30;99.90
42479;DHT22;28110;47.080;9.476;2023-02-01T09:29:59;2.40;99.90
42479;DHT22;28110;47.080;9.476;2023-02-01T09:32:25;2.60;99.90
42479;DHT22;28110;47.080;9.476;2023-02-01T09:34:51;2.70;99.90
42479;DHT22;28110;47.080;9.476;2023-02-01T09:37:18;2.70;99.90
42479;DHT22;28110;47.080;9.476;2023-02-01T09:39:44;2.80;99.90
42479;DHT22;28110;47.080;9.476;2023-02-01T09:42:21;2.90;99.90
42479;DHT22;28110;47.080;9.476;2023-02-01T09:45:23;2.90;99.90
42479;DHT22;28110;47.080;9.476;2023-02-01T09:47:53;3.00;99.90
42479;DHT22;28110;47.080;9.476;2023-02-01T09:50:43;3.10;99.90
42479;DHT22;28110;47.080;9.476;2023-02-01T09:53:22;3.10;99.90
42479;DHT22;28110;47.080;9.476;2023-02-01T09:55:51;3.10;99.90
42479;DHT22;28110;47.080;9.476;2023-02-01T09:58:30;3.10;99.90
42479;DHT22;28110;47.080;9.476;2023-02-01T10:00:59;3.00;99.90
42479;DHT22;28110;47.080;9.476;2023-02-01T10:03:31;3.00;99.90
42479;DHT22;28110;47.080;9.476;2023-02-01T10:08:55;3.00;99.90
42479;DHT22;28110;47.080;9.476;2023-02-01T10:15:05;3.00;99.90
42479;DHT22;28110;47.080;9.476;2023-02-01T10:22:45;3.10;99.90
42479;DHT22;28110;47.080;9.476;2023-02-01T10:25:17;3.10;99.90
42479;DHT22;28110;47.080;9.476;2023-02-01T10:27:49;3.10;99.90
42479;DHT22;28110;47.080;9.476;2023-02-01T10:30:21;3.10;99.90
42479;DHT22;28110;47.080;9.476;2023-02-01T10:33:35;3.10;99.90
42479;DHT22;28110;47.080;9.476;2023-02-01T10:35:36;3.10;99.90
42479;DHT22;28110;47.080;9.476;2023-02-01T10:38:11;3.20;99.90
42479;DHT22;28110;47.080;9.476;2023-02-01T10:40:40;3.30;99.90
42479;DHT22;28110;47.080;9.476;2023-02-01T10:43:07;3.30;99.90
42479;DHT22;28110;47.080;9.476;2023-02-01T10:45:34;3.40;99.90
42479;DHT22;28110;47.080;9.476;2023-02-01T10:48:02;3.40;99.90
42479;DHT22;28110;47.080;9.476;2023-02-01T10:50:34;3.50;99.90
42479;DHT22;28110;47.080;9.476;2023-02-01T10:53:18;3.50;99.90
42479;DHT22;28110;47.080;9.476;2023-02-01T10:58:26;3.60;99.90
42479;DHT22;28110;47.080;9.476;2023-02-01T11:00:59;3.70;99.90
42479;DHT22;28110;47.080;9.476;2023-02-01T11:05:57;3.80;99.90
42479;DHT22;28110;47.080;9.476;2023-02-01T11:08:23;3.80;99.90
42479;DHT22;28110;47.080;9.476;2023-02-01T11:11:01;3.90;99.90
42479;DHT22;28110;47.080;9.476;2023-02-01T11:13:32;4.00;99.90
42479;DHT22;28110;47.080;9.476;2023-02-01T11:16:03;4.10;99.90
42479;DHT22;28110;47.080;9.476;2023-02-01T11:18:33;4.10;99.90
42479;DHT22;28110;47.080;9.476;2023-02-01T11:21:00;4.10;99.90
42479;DHT22;28110;47.080;9.476;2023-02-01T11:23:27;4.10;99.90
42479;DHT22;28110;47.080;9.476;2023-02-01T11:25:58;4.20;99.90
42479;DHT22;28110;47.080;9.476;2023-02-01T11:28:31;4.20;99.90
42479;DHT22;28110;47.080;9.476;2023-02-01T11:31:10;4.20;99.90
42479;DHT22;28110;47.080;9.476;2023-02-01T11:33:39;4.30;99.90
42479;DHT22;28110;47.080;9.476;2023-02-01T11:36:10;4.30;99.90
42479;DHT22;28110;47.080;9.476;2023-02-01T11:38:37;4.40;99.90
42479;DHT22;28110;47.080;9.476;2023-02-01T11:41:14;4.40;99.90
42479;DHT22;28110;47.080;9.476;2023-02-01T11:43:56;4.40;99.90
42479;DHT22;28110;47.080;9.476;2023-02-01T11:46:29;4.40;99.90
42479;DHT22;28110;47.080;9.476;2023-02-01T11:48:56;4.50;99.90
42479;DHT22;28110;47.080;9.476;2023-02-01T11:54:12;4.60;99.90
42479;DHT22;28110;47.080;9.476;2023-02-01T11:59:46;4.60;99.90
42479;DHT22;28110;47.080;9.476;2023-02-01T12:03:04;4.60;99.90
42479;DHT22;28110;47.080;9.476;2023-02-01T12:21:57;5.30;99.90
42479;DHT22;28110;47.080;9.476;2023-02-01T12:27:22;5.50;99.90
42479;DHT22;28110;47.080;9.476;2023-02-01T12:32:51;5.70;99.90
42479;DHT22;28110;47.080;9.476;2023-02-01T12:35:26;5.70;99.90
42479;DHT22;28110;47.080;9.476;2023-02-01T12:41:00;5.90;99.90
42479;DHT22;28110;47.080;9.476;2023-02-01T12:43:44;6.00;99.90
42479;DHT22;28110;47.080;9.476;2023-02-01T12:46:24;6.10;99.90
42479;DHT22;28110;47.080;9.476;2023-02-01T12:51:25;6.20;99.90
42479;DHT22;28110;47.080;9.476;2023-02-01T12:53:55;6.30;99.90
42479;DHT22;28110;47.080;9.476;2023-02-01T12:56:36;6.30;99.90
42479;DHT22;28110;47.080;9.476;2023-02-01T12:59:10;6.30;99.90
42479;DHT22;28110;47.080;9.476;2023-02-01T13:01:45;6.30;99.90
42479;DHT22;28110;47.080;9.476;2023-02-01T13:07:09;6.40;99.90
42479;DHT22;28110;47.080;9.476;2023-02-01T13:09:41;6.50;99.90
42479;DHT22;28110;47.080;9.476;2023-02-01T13:12:19;6.60;99.90
42479;DHT22;28110;47.080;9.476;2023-02-01T13:15:02;6.70;99.90
42479;DHT22;28110;47.080;9.476;2023-02-01T13:17:32;6.80;99.90
42479;DHT22;28110;47.080;9.476;2023-02-01T13:22:53;7.00;99.90
42479;DHT22;28110;47.080;9.476;2023-02-01T13:25:33;7.10;99.90
42479;DHT22;28110;47.080;9.476;2023-02-01T13:28:12;7.20;99.90
42479;DHT22;28110;47.080;9.476;2023-02-01T13:34:16;7.30;99.90
42479;DHT22;28110;47.080;9.476;2023-02-01T13:36:44;7.40;99.90
42479;DHT22;28110;47.080;9.476;2023-02-01T13:39:41;7.40;99.90
42479;DHT22;28110;47.080;9.476;2023-02-01T13:42:30;7.40;99.90
42479;DHT22;28110;47.080;9.476;2023-02-01T13:45:21;7.40;99.90
42479;DHT22;28110;47.080;9.476;2023-02-01T13:47:49;7.40;99.90
42479;DHT22;28110;47.080;9.476;2023-02-01T13:50:29;7.40;99.90
42479;DHT22;28110;47.080;9.476;2023-02-01T13:53:11;7.40;99.90
42479;DHT22;28110;47.080;9.476;2023-02-01T13:55:45;7.30;99.90
42479;DHT22;28110;47.080;9.476;2023-02-01T14:03:46;7.20;99.90
42479;DHT22;28110;47.080;9.476;2023-02-01T14:06:18;7.20;99.90
42479;DHT22;28110;47.080;9.476;2023-02-01T14:16:42;7.20;99.90
42479;DHT22;28110;47.080;9.476;2023-02-01T14:19:19;7.20;99.90
42479;DHT22;28110;47.080;9.476;2023-02-01T14:21:49;7.20;99.90
42479;DHT22;28110;47.080;9.476;2023-02-01T14:24:27;7.10;99.90
42479;DHT22;28110;47.080;9.476;2023-02-01T14:29:40;7.20;99.90
42479;DHT22;28110;47.080;9.476;2023-02-01T14:37:28;7.20;99.90
42479;DHT22;28110;47.080;9.476;2023-02-01T14:40:02;7.10;99.90
42479;DHT22;28110;47.080;9.476;2023-02-01T14:52:46;7.10;99.90
42479;DHT22;28110;47.080;9.476;2023-02-01T14:58:32;7.10;99.90
42479;DHT22;28110;47.080;9.476;2023-02-01T15:01:23;7.10;99.90
42479;DHT22;28110;47.080;9.476;2023-02-01T15:03:59;7.10;99.90
42479;DHT22;28110;47.080;9.476;2023-02-01T15:06:41;7.10;99.90
42479;DHT22;28110;47.080;9.476;2023-02-01T15:11:57;7.10;99.90
42479;DHT22;28110;47.080;9.476;2023-02-01T15:14:23;7.10;99.90
42479;DHT22;28110;47.080;9.476;2023-02-01T15:16:49;7.00;99.90
42479;DHT22;28110;47.080;9.476;2023-02-01T15:19:26;6.90;99.90
42479;DHT22;28110;47.080;9.476;2023-02-01T15:21:54;6.90;99.90
42479;DHT22;28110;47.080;9.476;2023-02-01T15:24:25;6.80;99.90
42479;DHT22;28110;47.080;9.476;2023-02-01T15:26:53;6.70;99.90
42479;DHT22;28110;47.080;9.476;2023-02-01T15:29:20;6.60;99.90
42479;DHT22;28110;47.080;9.476;2023-02-01T15:31:49;6.50;99.90
42479;DHT22;28110;47.080;9.476;2023-02-01T15:34:15;6.50;99.90
42479;DHT22;28110;47.080;9.476;2023-02-01T15:36:42;6.50;99.90
42479;DHT22;28110;47.080;9.476;2023-02-01T15:39:24;6.40;99.90
42479;DHT22;28110;47.080;9.476;2023-02-01T15:42:17;6.50;99.90
42479;DHT22;28110;47.080;9.476;2023-02-01T15:44:45;6.60;99.90
42479;DHT22;28110;47.080;9.476;2023-02-01T15:47:26;6.60;99.90
42479;DHT22;28110;47.080;9.476;2023-02-01T15:49:54;6.50;99.90
42479;DHT22;28110;47.080;9.476;2023-02-01T15:52:33;6.40;99.90
42479;DHT22;28110;47.080;9.476;2023-02-01T15:55:30;6.40;99.90
42479;DHT22;28110;47.080;9.476;2023-02-01T15:57:58;6.30;99.90
42479;DHT22;28110;47.080;9.476;2023-02-01T16:00:29;6.30;99.90
42479;DHT22;28110;47.080;9.476;2023-02-01T16:02:58;6.30;99.90
42479;DHT22;28110;47.080;9.476;2023-02-01T16:05:38;6.30;99.90
42479;DHT22;28110;47.080;9.476;2023-02-01T16:08:15;6.20;99.90
42479;DHT22;28110;47.080;9.476;2023-02-01T16:10:44;6.20;99.90
42479;DHT22;28110;47.080;9.476;2023-02-01T16:13:11;6.20;99.90
42479;DHT22;28110;47.080;9.476;2023-02-01T16:15:37;6.10;99.90
42479;DHT22;28110;47.080;9.476;2023-02-01T16:18:03;6.10;99.90
42479;DHT22;28110;47.080;9.476;2023-02-01T16:20:28;6.10;99.90
42479;DHT22;28110;47.080;9.476;2023-02-01T16:22:55;6.10;99.90
42479;DHT22;28110;47.080;9.476;2023-02-01T16:25:21;6.10;99.90
42479;DHT22;28110;47.080;9.476;2023-02-01T16:27:46;6.10;99.90
42479;DHT22;28110;47.080;9.476;2023-02-01T16:30:12;6.00;99.90
42479;DHT22;28110;47.080;9.476;2023-02-01T16:32:38;6.00;99.90
42479;DHT22;28110;47.080;9.476;2023-02-01T16:35:27;6.10;99.90
42479;DHT22;28110;47.080;9.476;2023-02-01T16:37:55;6.30;99.90
42479;DHT22;28110;47.080;9.476;2023-02-01T16:40:21;6.30;99.90
42479;DHT22;28110;47.080;9.476;2023-02-01T16:42:50;6.30;99.90
42479;DHT22;28110;47.080;9.476;2023-02-01T16:45:16;6.30;99.90
42479;DHT22;28110;47.080;9.476;2023-02-01T16:47:48;6.30;99.90
42479;DHT22;28110;47.080;9.476;2023-02-01T16:50:21;6.30;99.90
42479;DHT22;28110;47.080;9.476;2023-02-01T16:52:47;6.10;99.90
42479;DHT22;28110;47.080;9.476;2023-02-01T16:55:14;6.10;99.90
42479;DHT22;28110;47.080;9.476;2023-02-01T16:57:41;6.00;99.90
42479;DHT22;28110;47.080;9.476;2023-02-01T17:00:08;6.00;99.90
42479;DHT22;28110;47.080;9.476;2023-02-01T17:02:34;5.90;99.90
42479;DHT22;28110;47.080;9.476;2023-02-01T17:05:00;5.90;99.90
42479;DHT22;28110;47.080;9.476;2023-02-01T17:07:26;5.80;99.90
42479;DHT22;28110;47.080;9.476;2023-02-01T17:09:52;6.00;99.90
42479;DHT22;28110;47.080;9.476;2023-02-01T17:12:27;6.00;99.90
42479;DHT22;28110;47.080;9.476;2023-02-01T17:14:55;6.00;99.90
42479;DHT22;28110;47.080;9.476;2023-02-01T17:17:21;6.00;99.90
42479;DHT22;28110;47.080;9.476;2023-02-01T17:19:50;5.90;99.90
42479;DHT22;28110;47.080;9.476;2023-02-01T17:22:17;5.90;99.90
42479;DHT22;28110;47.080;9.476;2023-02-01T17:24:43;5.90;99.90
42479;DHT22;28110;47.080;9.476;2023-02-01T17:27:09;5.80;99.90
42479;DHT22;28110;47.080;9.476;2023-02-01T17:29:35;5.80;99.90
42479;DHT22;28110;47.080;9.476;2023-02-01T17:32:00;5.80;99.90
42479;DHT22;28110;47.080;9.476;2023-02-01T17:34:26;5.70;99.90
42479;DHT22;28110;47.080;9.476;2023-02-01T17:36:52;5.80;99.90
42479;DHT22;28110;47.080;9.476;2023-02-01T17:39:18;5.90;99.90
42479;DHT22;28110;47.080;9.476;2023-02-01T17:42:04;5.90;99.90
42479;DHT22;28110;47.080;9.476;2023-02-01T17:44:30;5.80;99.90
42479;DHT22;28110;47.080;9.476;2023-02-01T17:46:55;5.80;99.90
42479;DHT22;28110;47.080;9.476;2023-02-01T17:49:23;5.80;99.90
42479;DHT22;28110;47.080;9.476;2023-02-01T17:51:49;5.80;99.90
42479;DHT22;28110;47.080;9.476;2023-02-01T17:54:16;5.80;99.90
42479;DHT22;28110;47.080;9.476;2023-02-01T17:56:43;5.70;99.90
42479;DHT22;28110;47.080;9.476;2023-02-01T17:59:08;5.60;99.90
42479;DHT22;28110;47.080;9.476;2023-02-01T18:01:34;5.70;99.90